sensor_id;sensor_type;location;lat;lon;timestamp;temperature;humidity
21823;DHT22;11074;48.596;9.238;2022-07-21T00:01:24;20.30;99.90
21823;DHT22;11074;48.596;9.238;2022-07-21T00:03:50;20.30;99.90
21823;DHT22;11074;48.596;9.238;2022-07-21T00:06:16;20.30;99.90
21823;DHT22;11074;48.596;9.238;2022-07-21T00:08:42;20.20;99.90
21823;DHT22;11074;48.596;9.238;2022-07-21T00:11:09;20.20;99.90
21823;DHT22;11074;48.596;9.238;2022-07-21T00:13:35;20.40;99.90
21823;DHT22;11074;48.596;9.238;2022-07-21T00:16:01;20.30;99.90
21823;DHT22;11074;48.596;9.238;2022-07-21T00:18:26;20.30;99.90
21823;DHT22;11074;48.596;9.238;2022-07-21T00:20:54;20.40;99.90
21823;DHT22;11074;48.596;9.238;2022-07-21T00:23:22;20.30;99.90
21823;DHT22;11074;48.596;9.238;2022-07-21T00:25:49;20.30;99.90
21823;DHT22;11074;48.596;9.238;2022-07-21T00:28:15;20.40;99.90
21823;DHT22;11074;48.596;9.238;2022-07-21T00:30:42;20.40;99.90
21823;DHT22;11074;48.596;9.238;2022-07-21T00:33:08;20.30;99.90
21823;DHT22;11074;48.596;9.238;2022-07-21T00:35:33;20.20;99.90
21823;DHT22;11074;48.596;9.238;2022-07-21T00:37:59;20.00;99.90
21823;DHT22;11074;48.596;9.238;2022-07-21T00:40:27;19.90;99.90
21823;DHT22;11074;48.596;9.238;2022-07-21T00:42:53;19.90;99.90
21823;DHT22;11074;48.596;9.238;2022-07-21T00:45:19;19.90;99.90
21823;DHT22;11074;48.596;9.238;2022-07-21T00:47:45;20.00;99.90
21823;DHT22;11074;48.596;9.238;2022-07-21T00:50:14;20.10;99.90
21823;DHT22;11074;48.596;9.238;2022-07-21T00:52:43;20.10;99.90
21823;DHT22;11074;48.596;9.238;2022-07-21T00:55:12;20.10;99.90
21823;DHT22;11074;48.596;9.238;2022-07-21T00:57:40;20.10;99.90
21823;DHT22;11074;48.596;9.238;2022-07-21T01:00:10;20.10;99.90
21823;DHT22;11074;48.596;9.238;2022-07-21T01:02:39;20.20;99.90
21823;DHT22;11074;48.596;9.238;2022-07-21T01:05:06;20.20;99.90
21823;DHT22;11074;48.596;9.238;2022-07-21T01:07:38;20.30;99.90
21823;DHT22;11074;48.596;9.238;2022-07-21T01:10:14;20.40;99.90
21823;DHT22;11074;48.596;9.238;2022-07-21T01:12:41;20.40;99.90
21823;DHT22;11074;48.596;9.238;2022-07-21T01:15:14;20.40;99.90
21823;DHT22;11074;48.596;9.238;2022-07-21T01:17:42;20.40;99.90
21823;DHT22;11074;48.596;9.238;2022-07-21T01:20:12;20.40;99.90
21823;DHT22;11074;48.596;9.238;2022-07-21T01:22:42;20.40;99.90
21823;DHT22;11074;48.596;9.238;2022-07-21T01:25:10;20.30;99.90
21823;DHT22;11074;48.596;9.238;2022-07-21T01:27:36;20.20;99.90
21823;DHT22;11074;48.596;9.238;2022-07-21T01:30:03;20.10;99.90
21823;DHT22;11074;48.596;9.238;2022-07-21T01:32:30;20.10;99.90
21823;DHT22;11074;48.596;9.238;2022-07-21T01:34:57;20.10;99.90
21823;DHT22;11074;48.596;9.238;2022-07-21T01:37:24;20.10;99.90
21823;DHT22;11074;48.596;9.238;2022-07-21T01:39:53;20.10;99.90
21823;DHT22;11074;48.596;9.238;2022-07-21T01:42:37;20.10;99.90
21823;DHT22;11074;48.596;9.238;2022-07-21T01:45:04;20.10;99.90
21823;DHT22;11074;48.596;9.238;2022-07-21T01:47:31;20.20;99.90
21823;DHT22;11074;48.596;9.238;2022-07-21T01:49:57;20.30;99.90
21823;DHT22;11074;48.596;9.238;2022-07-21T01:52:23;20.30;99.90
21823;DHT22;11074;48.596;9.238;2022-07-21T01:54:49;20.30;99.90
21823;DHT22;11074;48.596;9.238;2022-07-21T01:57:15;20.30;99.90
21823;DHT22;11074;48.596;9.238;2022-07-21T01:59:41;20.20;99.90
21823;DHT22;11074;48.596;9.238;2022-07-21T02:02:07;20.20;99.90
21823;DHT22;11074;48.596;9.238;2022-07-21T02:04:33;20.30;99.90
21823;DHT22;11074;48.596;9.238;2022-07-21T02:07:00;20.30;99.90
21823;DHT22;11074;48.596;9.238;2022-07-21T02:09:27;20.40;99.90
21823;DHT22;11074;48.596;9.238;2022-07-21T02:11:53;20.40;99.90
21823;DHT22;11074;48.596;9.238;2022-07-21T02:14:19;20.40;99.90
21823;DHT22;11074;48.596;9.238;2022-07-21T02:16:45;20.40;99.90
21823;DHT22;11074;48.596;9.238;2022-07-21T02:19:11;20.50;99.90
21823;DHT22;11074;48.596;9.238;2022-07-21T02:21:37;20.50;99.90
21823;DHT22;11074;48.596;9.238;2022-07-21T02:24:03;20.50;99.90
21823;DHT22;11074;48.596;9.238;2022-07-21T02:26:29;20.50;99.90
21823;DHT22;11074;48.596;9.238;2022-07-21T02:28:55;20.40;99.90
21823;DHT22;11074;48.596;9.238;2022-07-21T02:31:20;20.40;99.90
21823;DHT22;11074;48.596;9.238;2022-07-21T02:33:46;20.30;99.90
21823;DHT22;11074;48.596;9.238;2022-07-21T02:36:12;20.30;99.90
21823;DHT22;11074;48.596;9.238;2022-07-21T02:38:38;20.30;99.90
21823;DHT22;11074;48.596;9.238;2022-07-21T02:41:04;20.30;99.90
21823;DHT22;11074;48.596;9.238;2022-07-21T02:43:30;20.30;99.90
21823;DHT22;11074;48.596;9.238;2022-07-21T02:45:57;20.30;99.90
21823;DHT22;11074;48.596;9.238;2022-07-21T02:48:23;20.20;99.90
21823;DHT22;11074;48.596;9.238;2022-07-21T02:50:49;20.20;99.90
21823;DHT22;11074;48.596;9.238;2022-07-21T02:53:16;20.10;99.90
21823;DHT22;11074;48.596;9.238;2022-07-21T02:55:48;20.10;99.90
21823;DHT22;11074;48.596;9.238;2022-07-21T02:58:21;20.10;99.90
21823;DHT22;11074;48.596;9.238;2022-07-21T03:03:20;19.70;99.90
21823;DHT22;11074;48.596;9.238;2022-07-21T03:05:48;19.60;99.90
21823;DHT22;11074;48.596;9.238;2022-07-21T03:08:15;19.60;99.90
21823;DHT22;11074;48.596;9.238;2022-07-21T03:10:51;19.60;99.90
21823;DHT22;11074;48.596;9.238;2022-07-21T03:13:17;19.60;99.90
21823;DHT22;11074;48.596;9.238;2022-07-21T03:15:43;19.50;99.90
21823;DHT22;11074;48.596;9.238;2022-07-21T03:18:09;19.50;99.90
21823;DHT22;11074;48.596;9.238;2022-07-21T03:20:38;19.50;99.90
21823;DHT22;11074;48.596;9.238;2022-07-21T03:23:05;19.60;99.90
21823;DHT22;11074;48.596;9.238;2022-07-21T03:25:31;19.60;99.90
21823;DHT22;11074;48.596;9.238;2022-07-21T03:27:58;19.60;99.90
21823;DHT22;11074;48.596;9.238;2022-07-21T03:30:24;19.50;99.90
21823;DHT22;11074;48.596;9.238;2022-07-21T03:32:50;19.60;99.90
21823;DHT22;11074;48.596;9.238;2022-07-21T03:35:20;19.60;99.90
21823;DHT22;11074;48.596;9.238;2022-07-21T03:37:51;19.70;99.90
21823;DHT22;11074;48.596;9.238;2022-07-21T03:40:20;19.50;99.90
21823;DHT22;11074;48.596;9.238;2022-07-21T03:42:54;19.40;99.90
21823;DHT22;11074;48.596;9.238;2022-07-21T03:45:22;19.40;99.90
21823;DHT22;11074;48.596;9.238;2022-07-21T03:47:49;19.40;99.90
21823;DHT22;11074;48.596;9.238;2022-07-21T03:50:15;19.60;99.90
21823;DHT22;11074;48.596;9.238;2022-07-21T03:52:43;19.70;99.90
21823;DHT22;11074;48.596;9.238;2022-07-21T03:55:13;19.80;99.90
21823;DHT22;11074;48.596;9.238;2022-07-21T03:57:58;19.80;99.90
21823;DHT22;11074;48.596;9.238;2022-07-21T04:00:38;19.80;99.90
21823;DHT22;11074;48.596;9.238;2022-07-21T04:03:07;19.80;99.90
21823;DHT22;11074;48.596;9.238;2022-07-21T04:05:34;19.90;99.90
21823;DHT22;11074;48.596;9.238;2022-07-21T04:08:01;19.90;99.90
21823;DHT22;11074;48.596;9.238;2022-07-21T04:10:30;19.90;99.90
21823;DHT22;11074;48.596;9.238;2022-07-21T04:12:59;19.90;99.90
21823;DHT22;11074;48.596;9.238;2022-07-21T04:15:28;19.80;99.90
21823;DHT22;11074;48.596;9.238;2022-07-21T04:17:54;19.70;99.90
21823;DHT22;11074;48.596;9.238;2022-07-21T04:20:20;19.70;99.90
21823;DHT22;11074;48.596;9.238;2022-07-21T04:22:47;19.60;99.90
21823;DHT22;11074;48.596;9.238;2022-07-21T04:25:14;19.60;99.90
21823;DHT22;11074;48.596;9.238;2022-07-21T04:27:43;19.60;99.90
21823;DHT22;11074;48.596;9.238;2022-07-21T04:30:12;19.70;99.90
21823;DHT22;11074;48.596;9.238;2022-07-21T04:32:40;19.80;99.90
21823;DHT22;11074;48.596;9.238;2022-07-21T04:35:08;19.80;99.90
21823;DHT22;11074;48.596;9.238;2022-07-21T04:37:34;19.80;99.90
21823;DHT22;11074;48.596;9.238;2022-07-21T04:40:01;19.80;99.90
21823;DHT22;11074;48.596;9.238;2022-07-21T04:42:29;19.70;99.90
21823;DHT22;11074;48.596;9.238;2022-07-21T04:44:55;19.70;99.90
21823;DHT22;11074;48.596;9.238;2022-07-21T04:47:21;19.60;99.90
21823;DHT22;11074;48.596;9.238;2022-07-21T04:49:47;19.60;99.90
21823;DHT22;11074;48.596;9.238;2022-07-21T04:52:13;19.50;99.90
21823;DHT22;11074;48.596;9.238;2022-07-21T04:54:39;19.60;99.90
21823;DHT22;11074;48.596;9.238;2022-07-21T04:57:04;19.50;99.90
21823;DHT22;11074;48.596;9.238;2022-07-21T04:59:31;19.50;99.90
21823;DHT22;11074;48.596;9.238;2022-07-21T05:01:58;19.40;99.90
21823;DHT22;11074;48.596;9.238;2022-07-21T05:04:25;19.60;99.90
21823;DHT22;11074;48.596;9.238;2022-07-21T05:06:51;19.60;99.90
21823;DHT22;11074;48.596;9.238;2022-07-21T05:09:19;19.70;99.90
21823;DHT22;11074;48.596;9.238;2022-07-21T05:11:45;19.80;99.90
21823;DHT22;11074;48.596;9.238;2022-07-21T05:14:14;19.90;99.90
21823;DHT22;11074;48.596;9.238;2022-07-21T05:16:40;20.00;99.90
21823;DHT22;11074;48.596;9.238;2022-07-21T05:19:05;20.00;99.90
21823;DHT22;11074;48.596;9.238;2022-07-21T05:21:31;20.00;99.90
21823;DHT22;11074;48.596;9.238;2022-07-21T05:23:57;20.10;99.90
21823;DHT22;11074;48.596;9.238;2022-07-21T05:26:23;20.00;99.90
21823;DHT22;11074;48.596;9.238;2022-07-21T05:28:49;20.00;99.90
21823;DHT22;11074;48.596;9.238;2022-07-21T05:31:14;20.00;99.90
21823;DHT22;11074;48.596;9.238;2022-07-21T05:33:40;20.10;99.90
21823;DHT22;11074;48.596;9.238;2022-07-21T05:36:06;20.10;99.90
21823;DHT22;11074;48.596;9.238;2022-07-21T05:38:33;20.20;99.90
21823;DHT22;11074;48.596;9.238;2022-07-21T05:40:59;20.20;99.90
21823;DHT22;11074;48.596;9.238;2022-07-21T05:43:26;20.20;99.90
21823;DHT22;11074;48.596;9.238;2022-07-21T05:45:52;20.30;99.90
21823;DHT22;11074;48.596;9.238;2022-07-21T05:48:18;20.30;99.90
21823;DHT22;11074;48.596;9.238;2022-07-21T05:50:44;20.40;99.90
21823;DHT22;11074;48.596;9.238;2022-07-21T05:53:10;20.40;99.90
21823;DHT22;11074;48.596;9.238;2022-07-21T05:55:36;20.50;99.90
21823;DHT22;11074;48.596;9.238;2022-07-21T05:58:02;20.60;99.90
21823;DHT22;11074;48.596;9.238;2022-07-21T06:00:28;20.70;99.90
21823;DHT22;11074;48.596;9.238;2022-07-21T06:02:53;20.70;99.90
21823;DHT22;11074;48.596;9.238;2022-07-21T06:05:19;20.80;99.90
21823;DHT22;11074;48.596;9.238;2022-07-21T06:07:45;20.80;99.90
21823;DHT22;11074;48.596;9.238;2022-07-21T06:10:11;20.90;99.90
21823;DHT22;11074;48.596;9.238;2022-07-21T06:12:37;20.90;99.90
21823;DHT22;11074;48.596;9.238;2022-07-21T06:15:03;20.90;99.90
21823;DHT22;11074;48.596;9.238;2022-07-21T06:17:29;20.90;99.90
21823;DHT22;11074;48.596;9.238;2022-07-21T06:19:57;21.00;99.90
21823;DHT22;11074;48.596;9.238;2022-07-21T06:22:24;21.00;99.90
21823;DHT22;11074;48.596;9.238;2022-07-21T06:24:50;21.00;99.90
21823;DHT22;11074;48.596;9.238;2022-07-21T06:27:16;21.10;99.90
21823;DHT22;11074;48.596;9.238;2022-07-21T06:29:41;21.10;99.90
21823;DHT22;11074;48.596;9.238;2022-07-21T06:32:07;21.00;99.90
21823;DHT22;11074;48.596;9.238;2022-07-21T06:34:33;21.00;99.90
21823;DHT22;11074;48.596;9.238;2022-07-21T06:36:59;21.10;99.90
21823;DHT22;11074;48.596;9.238;2022-07-21T06:39:25;21.10;99.90
21823;DHT22;11074;48.596;9.238;2022-07-21T06:41:50;21.00;99.90
21823;DHT22;11074;48.596;9.238;2022-07-21T06:44:16;21.00;99.90
21823;DHT22;11074;48.596;9.238;2022-07-21T06:46:42;21.00;99.90
21823;DHT22;11074;48.596;9.238;2022-07-21T06:49:07;21.00;99.90
21823;DHT22;11074;48.596;9.238;2022-07-21T06:51:33;21.10;99.90
21823;DHT22;11074;48.596;9.238;2022-07-21T06:53:59;21.10;99.90
21823;DHT22;11074;48.596;9.238;2022-07-21T06:56:25;21.20;99.90
21823;DHT22;11074;48.596;9.238;2022-07-21T06:58:50;21.30;99.90
21823;DHT22;11074;48.596;9.238;2022-07-21T07:01:16;21.30;99.90
21823;DHT22;11074;48.596;9.238;2022-07-21T07:03:44;21.30;99.90
21823;DHT22;11074;48.596;9.238;2022-07-21T07:06:11;21.20;99.90
21823;DHT22;11074;48.596;9.238;2022-07-21T07:08:37;21.30;99.90
21823;DHT22;11074;48.596;9.238;2022-07-21T07:11:05;21.20;99.90
21823;DHT22;11074;48.596;9.238;2022-07-21T07:13:31;21.20;99.90
21823;DHT22;11074;48.596;9.238;2022-07-21T07:15:57;21.20;99.90
21823;DHT22;11074;48.596;9.238;2022-07-21T07:18:23;21.30;99.90
21823;DHT22;11074;48.596;9.238;2022-07-21T07:20:50;21.40;99.90
21823;DHT22;11074;48.596;9.238;2022-07-21T07:23:17;21.40;99.90
21823;DHT22;11074;48.596;9.238;2022-07-21T07:25:43;21.40;99.90
21823;DHT22;11074;48.596;9.238;2022-07-21T07:28:09;21.40;99.90
21823;DHT22;11074;48.596;9.238;2022-07-21T07:30:35;21.40;99.90
21823;DHT22;11074;48.596;9.238;2022-07-21T07:33:01;21.50;99.90
21823;DHT22;11074;48.596;9.238;2022-07-21T07:35:27;21.50;99.90
21823;DHT22;11074;48.596;9.238;2022-07-21T07:37:54;21.60;99.90
21823;DHT22;11074;48.596;9.238;2022-07-21T07:40:21;21.60;99.90
21823;DHT22;11074;48.596;9.238;2022-07-21T07:42:48;21.60;99.90
21823;DHT22;11074;48.596;9.238;2022-07-21T07:45:15;21.70;99.90
21823;DHT22;11074;48.596;9.238;2022-07-21T07:47:42;21.70;99.90
21823;DHT22;11074;48.596;9.238;2022-07-21T07:50:11;21.80;99.90
21823;DHT22;11074;48.596;9.238;2022-07-21T07:52:38;21.80;99.90
21823;DHT22;11074;48.596;9.238;2022-07-21T07:55:06;21.80;99.90
21823;DHT22;11074;48.596;9.238;2022-07-21T07:57:36;21.80;99.90
21823;DHT22;11074;48.596;9.238;2022-07-21T08:00:08;21.70;99.90
21823;DHT22;11074;48.596;9.238;2022-07-21T08:02:36;21.70;99.90
21823;DHT22;11074;48.596;9.238;2022-07-21T08:05:06;21.80;99.90
21823;DHT22;11074;48.596;9.238;2022-07-21T08:07:34;21.80;99.90
21823;DHT22;11074;48.596;9.238;2022-07-21T08:10:10;21.90;99.90
21823;DHT22;11074;48.596;9.238;2022-07-21T08:12:37;21.90;99.90
21823;DHT22;11074;48.596;9.238;2022-07-21T08:15:05;22.00;99.90
21823;DHT22;11074;48.596;9.238;2022-07-21T08:17:31;22.00;99.90
21823;DHT22;11074;48.596;9.238;2022-07-21T08:19:57;22.10;99.90
21823;DHT22;11074;48.596;9.238;2022-07-21T08:22:23;22.10;99.90
21823;DHT22;11074;48.596;9.238;2022-07-21T08:24:49;22.20;99.90
21823;DHT22;11074;48.596;9.238;2022-07-21T08:27:15;22.20;99.90
21823;DHT22;11074;48.596;9.238;2022-07-21T08:29:40;22.40;99.90
21823;DHT22;11074;48.596;9.238;2022-07-21T08:32:06;22.40;99.90
21823;DHT22;11074;48.596;9.238;2022-07-21T08:34:32;22.40;99.90
21823;DHT22;11074;48.596;9.238;2022-07-21T08:36:58;22.40;99.90
21823;DHT22;11074;48.596;9.238;2022-07-21T08:39:24;22.40;99.90
21823;DHT22;11074;48.596;9.238;2022-07-21T08:41:51;22.40;99.90
21823;DHT22;11074;48.596;9.238;2022-07-21T08:44:20;22.30;99.90
21823;DHT22;11074;48.596;9.238;2022-07-21T08:46:49;22.20;99.90
21823;DHT22;11074;48.596;9.238;2022-07-21T08:49:20;22.20;99.90
21823;DHT22;11074;48.596;9.238;2022-07-21T08:51:51;22.30;99.90
21823;DHT22;11074;48.596;9.238;2022-07-21T08:54:20;22.40;99.90
21823;DHT22;11074;48.596;9.238;2022-07-21T08:56:47;22.40;99.90
21823;DHT22;11074;48.596;9.238;2022-07-21T08:59:16;22.50;99.90
21823;DHT22;11074;48.596;9.238;2022-07-21T09:01:43;22.50;99.90
21823;DHT22;11074;48.596;9.238;2022-07-21T09:04:20;22.60;99.90
21823;DHT22;11074;48.596;9.238;2022-07-21T09:06:53;22.70;99.90
21823;DHT22;11074;48.596;9.238;2022-07-21T09:09:26;22.70;99.90
21823;DHT22;11074;48.596;9.238;2022-07-21T09:11:54;22.80;99.90
21823;DHT22;11074;48.596;9.238;2022-07-21T09:14:26;22.80;99.90
21823;DHT22;11074;48.596;9.238;2022-07-21T09:16:58;22.80;99.90
21823;DHT22;11074;48.596;9.238;2022-07-21T09:19:31;22.80;99.90
21823;DHT22;11074;48.596;9.238;2022-07-21T09:22:03;22.70;99.90
21823;DHT22;11074;48.596;9.238;2022-07-21T09:24:36;22.60;99.90
21823;DHT22;11074;48.596;9.238;2022-07-21T09:27:07;22.60;99.90
21823;DHT22;11074;48.596;9.238;2022-07-21T09:29:36;22.70;99.90
21823;DHT22;11074;48.596;9.238;2022-07-21T09:34:58;22.80;99.90
21823;DHT22;11074;48.596;9.238;2022-07-21T09:37:27;22.80;99.90
21823;DHT22;11074;48.596;9.238;2022-07-21T09:40:06;22.90;99.90
21823;DHT22;11074;48.596;9.238;2022-07-21T09:42:38;22.90;99.90
21823;DHT22;11074;48.596;9.238;2022-07-21T09:45:15;23.10;99.90
21823;DHT22;11074;48.596;9.238;2022-07-21T09:47:47;23.10;99.90
21823;DHT22;11074;48.596;9.238;2022-07-21T09:50:15;23.10;99.90
21823;DHT22;11074;48.596;9.238;2022-07-21T09:52:44;23.30;99.90
21823;DHT22;11074;48.596;9.238;2022-07-21T09:55:12;23.30;99.90
21823;DHT22;11074;48.596;9.238;2022-07-21T09:57:40;23.40;99.90
21823;DHT22;11074;48.596;9.238;2022-07-21T10:00:14;23.40;99.90
21823;DHT22;11074;48.596;9.238;2022-07-21T10:02:43;23.40;99.90
21823;DHT22;11074;48.596;9.238;2022-07-21T10:05:13;23.50;99.90
21823;DHT22;11074;48.596;9.238;2022-07-21T10:07:44;23.40;99.90
21823;DHT22;11074;48.596;9.238;2022-07-21T10:10:12;23.30;99.90
21823;DHT22;11074;48.596;9.238;2022-07-21T10:12:39;23.40;99.90
21823;DHT22;11074;48.596;9.238;2022-07-21T10:15:05;23.50;99.90
21823;DHT22;11074;48.596;9.238;2022-07-21T10:17:32;23.60;99.90
21823;DHT22;11074;48.596;9.238;2022-07-21T10:25:36;23.70;99.90
21823;DHT22;11074;48.596;9.238;2022-07-21T10:28:18;23.60;99.90
21823;DHT22;11074;48.596;9.238;2022-07-21T10:30:53;23.70;99.90
21823;DHT22;11074;48.596;9.238;2022-07-21T10:33:50;23.70;99.90
21823;DHT22;11074;48.596;9.238;2022-07-21T10:36:38;23.80;99.90
21823;DHT22;11074;48.596;9.238;2022-07-21T10:41:44;23.90;99.90
21823;DHT22;11074;48.596;9.238;2022-07-21T10:55:13;24.00;99.90
21823;DHT22;11074;48.596;9.238;2022-07-21T10:57:44;24.10;99.90
21823;DHT22;11074;48.596;9.238;2022-07-21T11:00:28;24.20;99.90
21823;DHT22;11074;48.596;9.238;2022-07-21T11:03:04;24.20;99.90
21823;DHT22;11074;48.596;9.238;2022-07-21T11:06:08;24.30;99.90
21823;DHT22;11074;48.596;9.238;2022-07-21T11:11:17;24.50;99.90
21823;DHT22;11074;48.596;9.238;2022-07-21T11:22:09;25.10;99.90
21823;DHT22;11074;48.596;9.238;2022-07-21T11:24:51;25.00;99.90
21823;DHT22;11074;48.596;9.238;2022-07-21T11:27:24;25.00;99.90
21823;DHT22;11074;48.596;9.238;2022-07-21T11:29:55;25.00;99.90
21823;DHT22;11074;48.596;9.238;2022-07-21T11:32:22;24.90;99.90
21823;DHT22;11074;48.596;9.238;2022-07-21T11:34:52;25.10;99.90
21823;DHT22;11074;48.596;9.238;2022-07-21T11:40:06;25.30;99.90
21823;DHT22;11074;48.596;9.238;2022-07-21T11:42:35;25.40;99.90
21823;DHT22;11074;48.596;9.238;2022-07-21T11:45:01;25.60;99.90
21823;DHT22;11074;48.596;9.238;2022-07-21T11:47:28;25.70;99.90
21823;DHT22;11074;48.596;9.238;2022-07-21T11:49:56;25.70;99.90
21823;DHT22;11074;48.596;9.238;2022-07-21T11:52:28;25.50;99.90
21823;DHT22;11074;48.596;9.238;2022-07-21T11:54:56;25.60;99.90
21823;DHT22;11074;48.596;9.238;2022-07-21T11:57:24;25.70;99.90
21823;DHT22;11074;48.596;9.238;2022-07-21T11:59:53;25.50;99.90
21823;DHT22;11074;48.596;9.238;2022-07-21T12:02:22;25.70;99.90
21823;DHT22;11074;48.596;9.238;2022-07-21T12:04:58;25.90;99.90
21823;DHT22;11074;48.596;9.238;2022-07-21T12:10:02;26.10;99.90
21823;DHT22;11074;48.596;9.238;2022-07-21T12:15:20;26.30;99.90
21823;DHT22;11074;48.596;9.238;2022-07-21T12:20:22;26.60;99.90
21823;DHT22;11074;48.596;9.238;2022-07-21T12:23:22;26.80;99.90
21823;DHT22;11074;48.596;9.238;2022-07-21T12:25:51;26.90;99.90
21823;DHT22;11074;48.596;9.238;2022-07-21T12:28:18;26.90;99.90
21823;DHT22;11074;48.596;9.238;2022-07-21T12:30:49;26.90;99.90
21823;DHT22;11074;48.596;9.238;2022-07-21T12:33:18;27.00;99.90
21823;DHT22;11074;48.596;9.238;2022-07-21T12:38:40;26.50;99.90
21823;DHT22;11074;48.596;9.238;2022-07-21T12:41:10;26.50;99.90
21823;DHT22;11074;48.596;9.238;2022-07-21T12:43:38;26.40;99.90
21823;DHT22;11074;48.596;9.238;2022-07-21T12:46:13;26.40;99.90
21823;DHT22;11074;48.596;9.238;2022-07-21T12:48:44;26.60;99.90
21823;DHT22;11074;48.596;9.238;2022-07-21T12:51:14;26.80;99.90
21823;DHT22;11074;48.596;9.238;2022-07-21T12:53:54;27.10;99.90
21823;DHT22;11074;48.596;9.238;2022-07-21T12:56:29;27.50;99.90
21823;DHT22;11074;48.596;9.238;2022-07-21T12:58:59;27.80;99.90
21823;DHT22;11074;48.596;9.238;2022-07-21T13:01:28;27.60;99.90
21823;DHT22;11074;48.596;9.238;2022-07-21T13:03:56;27.60;99.90
21823;DHT22;11074;48.596;9.238;2022-07-21T13:06:23;27.60;99.90
21823;DHT22;11074;48.596;9.238;2022-07-21T13:08:49;27.70;99.90
21823;DHT22;11074;48.596;9.238;2022-07-21T13:11:17;27.50;99.90
21823;DHT22;11074;48.596;9.238;2022-07-21T13:13:45;27.40;99.90
21823;DHT22;11074;48.596;9.238;2022-07-21T13:16:12;27.30;99.90
21823;DHT22;11074;48.596;9.238;2022-07-21T13:18:39;27.10;99.90
21823;DHT22;11074;48.596;9.238;2022-07-21T13:21:05;27.00;99.90
21823;DHT22;11074;48.596;9.238;2022-07-21T13:23:31;27.00;99.90
21823;DHT22;11074;48.596;9.238;2022-07-21T13:25:58;26.90;99.90
21823;DHT22;11074;48.596;9.238;2022-07-21T13:28:23;26.80;99.90
21823;DHT22;11074;48.596;9.238;2022-07-21T13:30:49;26.70;99.90
21823;DHT22;11074;48.596;9.238;2022-07-21T13:33:15;26.70;99.90
21823;DHT22;11074;48.596;9.238;2022-07-21T13:35:41;26.60;99.90
21823;DHT22;11074;48.596;9.238;2022-07-21T13:38:08;26.80;99.90
21823;DHT22;11074;48.596;9.238;2022-07-21T13:40:34;27.00;99.90
21823;DHT22;11074;48.596;9.238;2022-07-21T13:43:00;27.20;99.90
21823;DHT22;11074;48.596;9.238;2022-07-21T13:45:26;27.20;99.90
21823;DHT22;11074;48.596;9.238;2022-07-21T13:47:52;27.20;99.90
21823;DHT22;11074;48.596;9.238;2022-07-21T13:50:17;27.10;99.90
21823;DHT22;11074;48.596;9.238;2022-07-21T13:52:43;27.10;99.90
21823;DHT22;11074;48.596;9.238;2022-07-21T13:55:09;27.10;99.90
21823;DHT22;11074;48.596;9.238;2022-07-21T13:57:36;27.20;99.90
21823;DHT22;11074;48.596;9.238;2022-07-21T14:00:04;27.30;99.90
21823;DHT22;11074;48.596;9.238;2022-07-21T14:02:32;27.30;99.90
21823;DHT22;11074;48.596;9.238;2022-07-21T14:04:59;27.30;99.90
21823;DHT22;11074;48.596;9.238;2022-07-21T14:07:28;27.40;99.90
21823;DHT22;11074;48.596;9.238;2022-07-21T14:09:53;27.40;99.90
21823;DHT22;11074;48.596;9.238;2022-07-21T14:12:19;27.50;99.90
21823;DHT22;11074;48.596;9.238;2022-07-21T14:14:45;27.60;99.90
21823;DHT22;11074;48.596;9.238;2022-07-21T14:17:13;27.50;99.90
21823;DHT22;11074;48.596;9.238;2022-07-21T14:19:41;27.60;99.90
21823;DHT22;11074;48.596;9.238;2022-07-21T14:22:09;27.80;99.90
21823;DHT22;11074;48.596;9.238;2022-07-21T14:24:36;27.90;99.90
21823;DHT22;11074;48.596;9.238;2022-07-21T14:27:20;27.90;99.90
21823;DHT22;11074;48.596;9.238;2022-07-21T14:29:46;28.00;99.90
21823;DHT22;11074;48.596;9.238;2022-07-21T14:32:12;28.00;99.90
21823;DHT22;11074;48.596;9.238;2022-07-21T14:34:38;28.10;99.90
21823;DHT22;11074;48.596;9.238;2022-07-21T14:37:04;28.20;99.90
21823;DHT22;11074;48.596;9.238;2022-07-21T14:39:30;28.20;99.90
21823;DHT22;11074;48.596;9.238;2022-07-21T14:41:56;28.10;99.90
21823;DHT22;11074;48.596;9.238;2022-07-21T14:44:22;28.10;99.90
21823;DHT22;11074;48.596;9.238;2022-07-21T14:46:48;27.90;99.90
21823;DHT22;11074;48.596;9.238;2022-07-21T14:49:16;28.00;99.90
21823;DHT22;11074;48.596;9.238;2022-07-21T14:51:42;28.10;99.90
21823;DHT22;11074;48.596;9.238;2022-07-21T14:54:08;28.20;99.90
21823;DHT22;11074;48.596;9.238;2022-07-21T14:56:34;28.30;99.90
21823;DHT22;11074;48.596;9.238;2022-07-21T14:59:00;28.40;99.90
21823;DHT22;11074;48.596;9.238;2022-07-21T15:01:26;28.50;99.90
21823;DHT22;11074;48.596;9.238;2022-07-21T15:03:52;28.30;99.90
21823;DHT22;11074;48.596;9.238;2022-07-21T15:06:18;28.10;99.90
21823;DHT22;11074;48.596;9.238;2022-07-21T15:08:44;28.10;99.90
21823;DHT22;11074;48.596;9.238;2022-07-21T15:11:10;28.10;99.90
21823;DHT22;11074;48.596;9.238;2022-07-21T15:13:37;28.30;99.90
21823;DHT22;11074;48.596;9.238;2022-07-21T15:16:03;28.40;99.90
21823;DHT22;11074;48.596;9.238;2022-07-21T15:18:29;28.40;99.90
21823;DHT22;11074;48.596;9.238;2022-07-21T15:20:55;28.50;99.90
21823;DHT22;11074;48.596;9.238;2022-07-21T15:23:21;28.60;99.90
21823;DHT22;11074;48.596;9.238;2022-07-21T15:25:46;28.70;99.90
21823;DHT22;11074;48.596;9.238;2022-07-21T15:28:12;28.80;99.90
21823;DHT22;11074;48.596;9.238;2022-07-21T15:30:38;28.80;99.90
21823;DHT22;11074;48.596;9.238;2022-07-21T15:33:04;28.80;99.90
21823;DHT22;11074;48.596;9.238;2022-07-21T15:35:29;28.80;99.90
21823;DHT22;11074;48.596;9.238;2022-07-21T15:37:55;28.80;99.90
21823;DHT22;11074;48.596;9.238;2022-07-21T15:40:22;28.70;99.90
21823;DHT22;11074;48.596;9.238;2022-07-21T15:42:49;28.70;99.90
21823;DHT22;11074;48.596;9.238;2022-07-21T15:45:15;28.70;99.90
21823;DHT22;11074;48.596;9.238;2022-07-21T15:47:41;28.60;99.90
21823;DHT22;11074;48.596;9.238;2022-07-21T15:50:07;28.50;99.90
21823;DHT22;11074;48.596;9.238;2022-07-21T15:52:34;28.60;99.90
21823;DHT22;11074;48.596;9.238;2022-07-21T15:55:03;28.60;99.90
21823;DHT22;11074;48.596;9.238;2022-07-21T15:57:31;28.50;99.90
21823;DHT22;11074;48.596;9.238;2022-07-21T15:59:58;28.40;99.90
21823;DHT22;11074;48.596;9.238;2022-07-21T16:02:27;28.40;99.90
21823;DHT22;11074;48.596;9.238;2022-07-21T16:04:53;28.30;99.90
21823;DHT22;11074;48.596;9.238;2022-07-21T16:07:19;28.40;99.90
21823;DHT22;11074;48.596;9.238;2022-07-21T16:09:45;28.40;99.90
21823;DHT22;11074;48.596;9.238;2022-07-21T16:12:12;28.40;99.90
21823;DHT22;11074;48.596;9.238;2022-07-21T16:14:39;28.50;99.90
21823;DHT22;11074;48.596;9.238;2022-07-21T16:17:05;28.50;99.90
21823;DHT22;11074;48.596;9.238;2022-07-21T16:19:32;28.50;99.90
21823;DHT22;11074;48.596;9.238;2022-07-21T16:21:58;28.60;99.90
21823;DHT22;11074;48.596;9.238;2022-07-21T16:24:25;28.70;99.90